עמוד ראשי
METAR-TAF:

METAR-TAF

שדות תעופה :

Panama City, פלורידה, ארצות הברית

קו רוחב: 30-21-30N, קו אורך: 85-47-44W, גובה: 5מטר

תצפית מזג אוויר נוכחית

הדו"ח נערך לפני 1 שעות ו 7דקות, בשעה 10:53 UTC
רוח רגועה
טמפרטורת 23 צלסיוס
לחות 94%
לחץ 1014 hPa
ראות: 11.3קילומטר
שמיים נקיים

METAR: KECP 151053Z 00000KT 7SM CLR 23/22 A2993 RMK AO1 SLP144 T02280222

זמן: 07:00 (12:00 UTC)

תחזית

הדו"ח נערך לפני 40דקות, בשעה 11:20 UTC
תחזית בתוקף מ 15 ב 12 UTC עד 16 ב 12 UTC
רוח 5קשר מכיוון מזרח/צפון-מזרח
ראות: 10קילומטר
מעט עננים בגובה 6000רגל
מ 15 ב 1800UTC
רוח 8קשר מכיוון דרום
ראות: 10קילומטר
מעט עננים בגובה 25000רגל
מ 16 ב 0200UTC
רוח 3קשר מכיוון דרום-מזרח
ראות: 10קילומטר
עננים פזורים בגובה 25000רגל

TAF: KECP 151120Z 1512/1612 07005KT P6SM FEW060 FM151800 17008KT P6SM FEW250 FM160200 13003KT P6SM SCT250

תצפיות ותחזיות מזג אוויר לגבי יותר מ- 4,000 שדות תעופה ברחבי העולם. דוחות METAR ו- TAF.

התחנות הזמינות מסומנות בנקודות צהובות ואדומות על גבי המפה.

העבר את העכבר לנקודה הצבעונית על מנת לראות את שם התחנה.

לאחר מכן, לחץ כדי לראות את תוכן ואת תחזיות מזג האוויר.

כדי לשנות את המפה: לחץ על הכפתורים הירוקים עם הפלוס השחור כדי להתקרב; על הכפתור הירוק עם המקף כדי להתרחק; או בחיצים הירוקים למפות סמוכות.


METAR-TAF: